Aviation Digital Data Service (ADDS)

Output produced by METARs form (0229 UTC 15 August 2020)
found at http://www.aviationweather.gov/metar/data/
 
METAR text: OMDB 150200Z 08005KT 020V100 8000 NSC 33/29 Q0993 NOSIG
Conditions at: OMDB (DUBAI INTL AIRPO, AE) observed 0200 UTC 15 August 2020
Temperature: 33.0°C (91°F)
Dewpoint: 29.0°C (84°F) [RH = 80%]
Pressure (altimeter): 29.32 inches Hg (993.0 mb)
Winds: from the E (80 degrees) at 6 MPH (5 knots; 2.6 m/s)
Visibility: 5 miles ( 8 km)
Ceiling: at least 12,000 feet AGL
Clouds: sky clear below 12,000 feet AGL
Weather: no significant weather observed at this time

METAR text: OMDB 150100Z 08005KT 020V110 CAVOK 34/28 Q0992 NOSIG
Conditions at: OMDB (DUBAI INTL AIRPO, AE) observed 0100 UTC 15 August 2020
Temperature: 34.0°C (93°F)
Dewpoint: 28.0°C (82°F) [RH = 71%]
Pressure (altimeter): 29.29 inches Hg (992.0 mb)
Winds: from the E (80 degrees) at 6 MPH (5 knots; 2.6 m/s)
Visibility: 6 or more miles (10+ km)
Ceiling: ceiling and visibility are OK
Clouds: unknown
Weather: no significant weather observed at this time

METAR text: OMDB 150000Z 08003KT 350V120 CAVOK 34/28 Q0992 NOSIG
Conditions at: OMDB (DUBAI INTL AIRPO, AE) observed 0000 UTC 15 August 2020
Temperature: 34.0°C (93°F)
Dewpoint: 28.0°C (82°F) [RH = 71%]
Pressure (altimeter): 29.29 inches Hg (992.0 mb)
Winds: from the E (80 degrees) at 3 MPH (3 knots; 1.5 m/s)
Visibility: 6 or more miles (10+ km)
Ceiling: ceiling and visibility are OK
Clouds: unknown
Weather: no significant weather observed at this time

METAR text: OMDB 142300Z 07004KT 350V110 CAVOK 34/29 Q0992 NOSIG
Conditions at: OMDB (DUBAI INTL AIRPO, AE) observed 2300 UTC 14 August 2020
Temperature: 34.0°C (93°F)
Dewpoint: 29.0°C (84°F) [RH = 75%]
Pressure (altimeter): 29.29 inches Hg (992.0 mb)
Winds: from the ENE (70 degrees) at 5 MPH (4 knots; 2.1 m/s)
Visibility: 6 or more miles (10+ km)
Ceiling: ceiling and visibility are OK
Clouds: unknown
Weather: no significant weather observed at this time

METAR text: OMDB 142200Z 06003KT 030V100 CAVOK 35/28 Q0992 NOSIG
Conditions at: OMDB (DUBAI INTL AIRPO, AE) observed 2200 UTC 14 August 2020
Temperature: 35.0°C (95°F)
Dewpoint: 28.0°C (82°F) [RH = 67%]
Pressure (altimeter): 29.29 inches Hg (992.0 mb)
Winds: from the ENE (60 degrees) at 3 MPH (3 knots; 1.5 m/s)
Visibility: 6 or more miles (10+ km)
Ceiling: ceiling and visibility are OK
Clouds: unknown
Weather: no significant weather observed at this time

METAR text: OMDB 142100Z 05004KT 310V110 CAVOK 35/29 Q0993 NOSIG
Conditions at: OMDB (DUBAI INTL AIRPO, AE) observed 2100 UTC 14 August 2020
Temperature: 35.0°C (95°F)
Dewpoint: 29.0°C (84°F) [RH = 71%]
Pressure (altimeter): 29.32 inches Hg (993.0 mb)
Winds: from the NE (50 degrees) at 5 MPH (4 knots; 2.1 m/s)
Visibility: 6 or more miles (10+ km)
Ceiling: ceiling and visibility are OK
Clouds: unknown
Weather: no significant weather observed at this time

METAR text: OMDB 142000Z 33004KT 300V360 CAVOK 35/29 Q0993 NOSIG
Conditions at: OMDB (DUBAI INTL AIRPO, AE) observed 2000 UTC 14 August 2020
Temperature: 35.0°C (95°F)
Dewpoint: 29.0°C (84°F) [RH = 71%]
Pressure (altimeter): 29.32 inches Hg (993.0 mb)
Winds: from the NNW (330 degrees) at 5 MPH (4 knots; 2.1 m/s)
Visibility: 6 or more miles (10+ km)
Ceiling: ceiling and visibility are OK
Clouds: unknown
Weather: no significant weather observed at this time

METAR text: OMDB 141900Z 35005KT 330V060 CAVOK 35/29 Q0993 NOSIG
Conditions at: OMDB (DUBAI INTL AIRPO, AE) observed 1900 UTC 14 August 2020
Temperature: 35.0°C (95°F)
Dewpoint: 29.0°C (84°F) [RH = 71%]
Pressure (altimeter): 29.32 inches Hg (993.0 mb)
Winds: from the N (350 degrees) at 6 MPH (5 knots; 2.6 m/s)
Visibility: 6 or more miles (10+ km)
Ceiling: ceiling and visibility are OK
Clouds: unknown
Weather: no significant weather observed at this time

METAR text: OMDB 141800Z 34007KT 310V020 CAVOK 35/29 Q0993 NOSIG
Conditions at: OMDB (DUBAI INTL AIRPO, AE) observed 1800 UTC 14 August 2020
Temperature: 35.0°C (95°F)
Dewpoint: 29.0°C (84°F) [RH = 71%]
Pressure (altimeter): 29.32 inches Hg (993.0 mb)
Winds: from the NNW (340 degrees) at 8 MPH (7 knots; 3.6 m/s)
Visibility: 6 or more miles (10+ km)
Ceiling: ceiling and visibility are OK
Clouds: unknown
Weather: no significant weather observed at this time

METAR text: OMDB 141700Z 35005KT 320V040 CAVOK 35/28 Q0992 NOSIG
Conditions at: OMDB (DUBAI INTL AIRPO, AE) observed 1700 UTC 14 August 2020
Temperature: 35.0°C (95°F)
Dewpoint: 28.0°C (82°F) [RH = 67%]
Pressure (altimeter): 29.29 inches Hg (992.0 mb)
Winds: from the N (350 degrees) at 6 MPH (5 knots; 2.6 m/s)
Visibility: 6 or more miles (10+ km)
Ceiling: ceiling and visibility are OK
Clouds: unknown
Weather: no significant weather observed at this time

METAR text: OMDB 141600Z 34006KT 300V010 CAVOK 36/28 Q0991 NOSIG
Conditions at: OMDB (DUBAI INTL AIRPO, AE) observed 1600 UTC 14 August 2020
Temperature: 36.0°C (97°F)
Dewpoint: 28.0°C (82°F) [RH = 64%]
Pressure (altimeter): 29.26 inches Hg (991.0 mb)
Winds: from the NNW (340 degrees) at 7 MPH (6 knots; 3.1 m/s)
Visibility: 6 or more miles (10+ km)
Ceiling: ceiling and visibility are OK
Clouds: unknown
Weather: no significant weather observed at this time

METAR text: OMDB 141500Z 35007KT 320V040 CAVOK 36/28 Q0991 NOSIG
Conditions at: OMDB (DUBAI INTL AIRPO, AE) observed 1500 UTC 14 August 2020
Temperature: 36.0°C (97°F)
Dewpoint: 28.0°C (82°F) [RH = 64%]
Pressure (altimeter): 29.26 inches Hg (991.0 mb)
Winds: from the N (350 degrees) at 8 MPH (7 knots; 3.6 m/s)
Visibility: 6 or more miles (10+ km)
Ceiling: ceiling and visibility are OK
Clouds: unknown
Weather: no significant weather observed at this time

METAR text: OMDB 141400Z 35009KT 320V020 CAVOK 37/27 Q0991 NOSIG
Conditions at: OMDB (DUBAI INTL AIRPO, AE) observed 1400 UTC 14 August 2020
Temperature: 37.0°C (99°F)
Dewpoint: 27.0°C (81°F) [RH = 57%]
Pressure (altimeter): 29.26 inches Hg (991.0 mb)
Winds: from the N (350 degrees) at 10 MPH (9 knots; 4.6 m/s)
Visibility: 6 or more miles (10+ km)
Ceiling: ceiling and visibility are OK
Clouds: unknown
Weather: no significant weather observed at this time

METAR text: OMDB 141300Z 01011KT CAVOK 37/27 Q0991 NOSIG
Conditions at: OMDB (DUBAI INTL AIRPO, AE) observed 1300 UTC 14 August 2020
Temperature: 37.0°C (99°F)
Dewpoint: 27.0°C (81°F) [RH = 57%]
Pressure (altimeter): 29.26 inches Hg (991.0 mb)
Winds: from the N (10 degrees) at 13 MPH (11 knots; 5.7 m/s)
Visibility: 6 or more miles (10+ km)
Ceiling: ceiling and visibility are OK
Clouds: unknown
Weather: no significant weather observed at this time

METAR text: OMDB 141200Z 34011KT CAVOK 39/22 Q0991 NOSIG
Conditions at: OMDB (DUBAI INTL AIRPO, AE) observed 1200 UTC 14 August 2020
Temperature: 39.0°C (102°F)
Dewpoint: 22.0°C (72°F) [RH = 38%]
Pressure (altimeter): 29.26 inches Hg (991.0 mb)
Winds: from the NNW (340 degrees) at 13 MPH (11 knots; 5.7 m/s)
Visibility: 6 or more miles (10+ km)
Ceiling: ceiling and visibility are OK
Clouds: unknown
Weather: no significant weather observed at this time

METAR text: OMDB 141100Z 31012KT CAVOK 39/25 Q0992 NOSIG
Conditions at: OMDB (DUBAI INTL AIRPO, AE) observed 1100 UTC 14 August 2020
Temperature: 39.0°C (102°F)
Dewpoint: 25.0°C (77°F) [RH = 45%]
Pressure (altimeter): 29.29 inches Hg (992.0 mb)
Winds: from the NW (310 degrees) at 14 MPH (12 knots; 6.2 m/s)
Visibility: 6 or more miles (10+ km)
Ceiling: ceiling and visibility are OK
Clouds: unknown
Weather: no significant weather observed at this time

METAR text: OMDB 141000Z 32010KT 290V350 CAVOK 39/27 Q0992 NOSIG
Conditions at: OMDB (DUBAI INTL AIRPO, AE) observed 1000 UTC 14 August 2020
Temperature: 39.0°C (102°F)
Dewpoint: 27.0°C (81°F) [RH = 51%]
Pressure (altimeter): 29.29 inches Hg (992.0 mb)
Winds: from the NW (320 degrees) at 12 MPH (10 knots; 5.1 m/s)
Visibility: 6 or more miles (10+ km)
Ceiling: ceiling and visibility are OK
Clouds: unknown
Weather: no significant weather observed at this time

METAR text: OMDB 140900Z 33008KT 290V010 CAVOK 38/28 Q0993 NOSIG
Conditions at: OMDB (DUBAI INTL AIRPO, AE) observed 0900 UTC 14 August 2020
Temperature: 38.0°C (100°F)
Dewpoint: 28.0°C (82°F) [RH = 57%]
Pressure (altimeter): 29.32 inches Hg (993.0 mb)
Winds: from the NNW (330 degrees) at 9 MPH (8 knots; 4.1 m/s)
Visibility: 6 or more miles (10+ km)
Ceiling: ceiling and visibility are OK
Clouds: unknown
Weather: no significant weather observed at this time

METAR text: OMDB 140800Z 31007KT 260V010 CAVOK 38/27 Q0994 NOSIG
Conditions at: OMDB (DUBAI INTL AIRPO, AE) observed 0800 UTC 14 August 2020
Temperature: 38.0°C (100°F)
Dewpoint: 27.0°C (81°F) [RH = 54%]
Pressure (altimeter): 29.35 inches Hg (994.0 mb)
Winds: from the NW (310 degrees) at 8 MPH (7 knots; 3.6 m/s)
Visibility: 6 or more miles (10+ km)
Ceiling: ceiling and visibility are OK
Clouds: unknown
Weather: no significant weather observed at this time

METAR text: OMDB 140700Z VRB03KT CAVOK 38/26 Q0994 NOSIG
Conditions at: OMDB (DUBAI INTL AIRPO, AE) observed 0700 UTC 14 August 2020
Temperature: 38.0°C (100°F)
Dewpoint: 26.0°C (79°F) [RH = 51%]
Pressure (altimeter): 29.35 inches Hg (994.0 mb)
Winds: variable direction winds at 3 MPH (3 knots; 1.5 m/s)
Visibility: 6 or more miles (10+ km)
Ceiling: ceiling and visibility are OK
Clouds: unknown
Weather: no significant weather observed at this time

METAR text: OMDB 140600Z 26004KT 200V360 CAVOK 36/26 Q0995 NOSIG
Conditions at: OMDB (DUBAI INTL AIRPO, AE) observed 0600 UTC 14 August 2020
Temperature: 36.0°C (97°F)
Dewpoint: 26.0°C (79°F) [RH = 57%]
Pressure (altimeter): 29.38 inches Hg (995.0 mb)
Winds: from the W (260 degrees) at 5 MPH (4 knots; 2.1 m/s)
Visibility: 6 or more miles (10+ km)
Ceiling: ceiling and visibility are OK
Clouds: unknown
Weather: no significant weather observed at this time

METAR text: OMDB 140500Z VRB03KT CAVOK 35/27 Q0995 NOSIG
Conditions at: OMDB (DUBAI INTL AIRPO, AE) observed 0500 UTC 14 August 2020
Temperature: 35.0°C (95°F)
Dewpoint: 27.0°C (81°F) [RH = 63%]
Pressure (altimeter): 29.38 inches Hg (995.0 mb)
Winds: variable direction winds at 3 MPH (3 knots; 1.5 m/s)
Visibility: 6 or more miles (10+ km)
Ceiling: ceiling and visibility are OK
Clouds: unknown
Weather: no significant weather observed at this time

METAR text: OMDB 140400Z 17004KT 110V210 CAVOK 34/27 Q0995 NOSIG
Conditions at: OMDB (DUBAI INTL AIRPO, AE) observed 0400 UTC 14 August 2020
Temperature: 34.0°C (93°F)
Dewpoint: 27.0°C (81°F) [RH = 67%]
Pressure (altimeter): 29.38 inches Hg (995.0 mb)
Winds: from the S (170 degrees) at 5 MPH (4 knots; 2.1 m/s)
Visibility: 6 or more miles (10+ km)
Ceiling: ceiling and visibility are OK
Clouds: unknown
Weather: no significant weather observed at this time

METAR text: OMDB 140300Z 18006KT CAVOK 33/28 Q0994 NOSIG
Conditions at: OMDB (DUBAI INTL AIRPO, AE) observed 0300 UTC 14 August 2020
Temperature: 33.0°C (91°F)
Dewpoint: 28.0°C (82°F) [RH = 75%]
Pressure (altimeter): 29.35 inches Hg (994.0 mb)
Winds: from the S (180 degrees) at 7 MPH (6 knots; 3.1 m/s)
Visibility: 6 or more miles (10+ km)
Ceiling: ceiling and visibility are OK
Clouds: unknown
Weather: no significant weather observed at this time

METAR text: OMDB 140200Z 20007KT CAVOK 32/28 Q0994 NOSIG
Conditions at: OMDB (DUBAI INTL AIRPO, AE) observed 0200 UTC 14 August 2020
Temperature: 32.0°C (90°F)
Dewpoint: 28.0°C (82°F) [RH = 80%]
Pressure (altimeter): 29.35 inches Hg (994.0 mb)
Winds: from the SSW (200 degrees) at 8 MPH (7 knots; 3.6 m/s)
Visibility: 6 or more miles (10+ km)
Ceiling: ceiling and visibility are OK
Clouds: unknown
Weather: no significant weather observed at this time

METAR text: OMDB 140100Z 20006KT CAVOK 33/28 Q0994 NOSIG
Conditions at: OMDB (DUBAI INTL AIRPO, AE) observed 0100 UTC 14 August 2020
Temperature: 33.0°C (91°F)
Dewpoint: 28.0°C (82°F) [RH = 75%]
Pressure (altimeter): 29.35 inches Hg (994.0 mb)
Winds: from the SSW (200 degrees) at 7 MPH (6 knots; 3.1 m/s)
Visibility: 6 or more miles (10+ km)
Ceiling: ceiling and visibility are OK
Clouds: unknown
Weather: no significant weather observed at this time

METAR text: OMDB 140000Z 20006KT 160V220 CAVOK 34/28 Q0993 NOSIG
Conditions at: OMDB (DUBAI INTL AIRPO, AE) observed 0000 UTC 14 August 2020
Temperature: 34.0°C (93°F)
Dewpoint: 28.0°C (82°F) [RH = 71%]
Pressure (altimeter): 29.32 inches Hg (993.0 mb)
Winds: from the SSW (200 degrees) at 7 MPH (6 knots; 3.1 m/s)
Visibility: 6 or more miles (10+ km)
Ceiling: ceiling and visibility are OK
Clouds: unknown
Weather: no significant weather observed at this time

METAR text: OMDB 132300Z 19004KT 150V240 CAVOK 34/27 Q0994 NOSIG
Conditions at: OMDB (DUBAI INTL AIRPO, AE) observed 2300 UTC 13 August 2020
Temperature: 34.0°C (93°F)
Dewpoint: 27.0°C (81°F) [RH = 67%]
Pressure (altimeter): 29.35 inches Hg (994.0 mb)
Winds: from the S (190 degrees) at 5 MPH (4 knots; 2.1 m/s)
Visibility: 6 or more miles (10+ km)
Ceiling: ceiling and visibility are OK
Clouds: unknown
Weather: no significant weather observed at this time

METAR text: OMDB 132200Z 19004KT CAVOK 34/28 Q0994 NOSIG
Conditions at: OMDB (DUBAI INTL AIRPO, AE) observed 2200 UTC 13 August 2020
Temperature: 34.0°C (93°F)
Dewpoint: 28.0°C (82°F) [RH = 71%]
Pressure (altimeter): 29.35 inches Hg (994.0 mb)
Winds: from the S (190 degrees) at 5 MPH (4 knots; 2.1 m/s)
Visibility: 6 or more miles (10+ km)
Ceiling: ceiling and visibility are OK
Clouds: unknown
Weather: no significant weather observed at this time

METAR text: OMDB 132100Z 26005KT CAVOK 34/28 Q0995 NOSIG
Conditions at: OMDB (DUBAI INTL AIRPO, AE) observed 2100 UTC 13 August 2020
Temperature: 34.0°C (93°F)
Dewpoint: 28.0°C (82°F) [RH = 71%]
Pressure (altimeter): 29.38 inches Hg (995.0 mb)
Winds: from the W (260 degrees) at 6 MPH (5 knots; 2.6 m/s)
Visibility: 6 or more miles (10+ km)
Ceiling: ceiling and visibility are OK
Clouds: unknown
Weather: no significant weather observed at this time

METAR text: OMDB 132000Z 25006KT 220V280 9999 FEW025 34/29 Q0995 NOSIG
Conditions at: OMDB (DUBAI INTL AIRPO, AE) observed 2000 UTC 13 August 2020
Temperature: 34.0°C (93°F)
Dewpoint: 29.0°C (84°F) [RH = 75%]
Pressure (altimeter): 29.38 inches Hg (995.0 mb)
Winds: from the WSW (250 degrees) at 7 MPH (6 knots; 3.1 m/s)
Visibility: 6 or more miles (10+ km)
Ceiling: at least 12,000 feet AGL
Clouds: few clouds at 2500 feet AGL
Weather: no significant weather observed at this time

METAR text: OMDB 131900Z 27007KT 9999 FEW025 34/29 Q0995 NOSIG
Conditions at: OMDB (DUBAI INTL AIRPO, AE) observed 1900 UTC 13 August 2020
Temperature: 34.0°C (93°F)
Dewpoint: 29.0°C (84°F) [RH = 75%]
Pressure (altimeter): 29.38 inches Hg (995.0 mb)
Winds: from the W (270 degrees) at 8 MPH (7 knots; 3.6 m/s)
Visibility: 6 or more miles (10+ km)
Ceiling: at least 12,000 feet AGL
Clouds: few clouds at 2500 feet AGL
Weather: no significant weather observed at this time

METAR text: OMDB 131800Z 27007KT 240V300 9999 FEW025 35/28 Q0995 NOSIG
Conditions at: OMDB (DUBAI INTL AIRPO, AE) observed 1800 UTC 13 August 2020
Temperature: 35.0°C (95°F)
Dewpoint: 28.0°C (82°F) [RH = 67%]
Pressure (altimeter): 29.38 inches Hg (995.0 mb)
Winds: from the W (270 degrees) at 8 MPH (7 knots; 3.6 m/s)
Visibility: 6 or more miles (10+ km)
Ceiling: at least 12,000 feet AGL
Clouds: few clouds at 2500 feet AGL
Weather: no significant weather observed at this time

METAR text: OMDB 131700Z 27007KT 240V300 9999 FEW025 35/29 Q0995 NOSIG
Conditions at: OMDB (DUBAI INTL AIRPO, AE) observed 1700 UTC 13 August 2020
Temperature: 35.0°C (95°F)
Dewpoint: 29.0°C (84°F) [RH = 71%]
Pressure (altimeter): 29.38 inches Hg (995.0 mb)
Winds: from the W (270 degrees) at 8 MPH (7 knots; 3.6 m/s)
Visibility: 6 or more miles (10+ km)
Ceiling: at least 12,000 feet AGL
Clouds: few clouds at 2500 feet AGL
Weather: no significant weather observed at this time

METAR text: OMDB 131600Z 27007KT 230V300 9999 FEW030 35/28 Q0994 NOSIG
Conditions at: OMDB (DUBAI INTL AIRPO, AE) observed 1600 UTC 13 August 2020
Temperature: 35.0°C (95°F)
Dewpoint: 28.0°C (82°F) [RH = 67%]
Pressure (altimeter): 29.35 inches Hg (994.0 mb)
Winds: from the W (270 degrees) at 8 MPH (7 knots; 3.6 m/s)
Visibility: 6 or more miles (10+ km)
Ceiling: at least 12,000 feet AGL
Clouds: few clouds at 3000 feet AGL
Weather: no significant weather observed at this time

METAR text: OMDB 131500Z 27008KT 230V300 CAVOK 35/29 Q0994 NOSIG
Conditions at: OMDB (DUBAI INTL AIRPO, AE) observed 1500 UTC 13 August 2020
Temperature: 35.0°C (95°F)
Dewpoint: 29.0°C (84°F) [RH = 71%]
Pressure (altimeter): 29.35 inches Hg (994.0 mb)
Winds: from the W (270 degrees) at 9 MPH (8 knots; 4.1 m/s)
Visibility: 6 or more miles (10+ km)
Ceiling: ceiling and visibility are OK
Clouds: unknown
Weather: no significant weather observed at this time

Forecast for: OMDB (DUBAI INTL AIRPO, AE)
Text: TAF OMDB 142304Z 1500/1606 10005KT 8000 NSC
Forecast period: 0000 to 0700 UTC 15 August 2020
Forecast type: FROM: standard forecast or significant change
Winds: from the E (100 degrees) at 6 MPH (5 knots; 2.6 m/s)
Visibility: 5 miles (8 km)
Ceiling: unknown
Clouds: missing
Weather: no significant weather forecast for this period
Text: BECMG 1507/1509 33012KT
Forecast period: 0700 to 1600 UTC 15 August 2020
Forecast type: BECOMING: Conditions expected to become as follows by 0900 UTC 15 August 2020
Winds: from the NNW (330 degrees) at 14 MPH (12 knots; 6.2 m/s)
Visibility: 5 miles (8 km)
Ceiling: unknown
Clouds: missing
Weather: no significant weather forecast for this period
Text: BECMG 1516/1518 03005KT
Forecast period: 1600 UTC 15 August 2020 to 0600 UTC 16 August 2020
Forecast type: BECOMING: Conditions expected to become as follows by 1800 UTC 15 August 2020
Winds: from the NNE (30 degrees) at 6 MPH (5 knots; 2.6 m/s)
Visibility: 5 miles (8 km)
Ceiling: unknown
Clouds: missing
Weather: no significant weather forecast for this period